This is the latest recevied weather packets stored in our database for station/object N8XHB. If no packets are shown the sender has not sent any weather packets the latest 10 day(s).
| Time | Temp. | Humidity | Pressure | Rain* | Wind** | Luminosity | Snow |
|---|---|---|---|---|---|---|---|
| 1777680280 | 6.11° C | 49% | 1016.7 hPa | 0 mm | - | 12 W/m² | - |
| 1777679976 | 6.11° C | 47% | 1016.6 hPa | 0 mm | - | 13 W/m² | - |
| 1777679671 | 6.11° C | 47% | 1016.6 hPa | 0 mm | - | 14 W/m² | - |
| 1777679366 | 6.67° C | 44% | 1016.5 hPa | 0 mm | - | 14 W/m² | - |
| 1777679064 | 6.67° C | 44% | 1016.5 hPa | 0 mm | - | 14 W/m² | - |
| 1777678762 | 6.67° C | 43% | 1016.4 hPa | 0 mm | - | 15 W/m² | - |
| 1777678459 | 6.67° C | 44% | 1016.3 hPa | 0 mm | - | 20 W/m² | - |
| 1777678154 | 6.67° C | 44% | 1016.3 hPa | 0 mm | - | 32 W/m² | - |
| 1777677852 | 7.22° C | 44% | 1016.3 hPa | 0 mm | - | 50 W/m² | - |
| 1777677550 | 7.22° C | 44% | 1016.3 hPa | 0 mm | - | 56 W/m² | - |
| 1777677248 | 6.67° C | 43% | 1016.4 hPa | 0 mm | - | 67 W/m² | - |
| 1777676946 | 6.67° C | 43% | 1016.4 hPa | 0 mm | - | 66 W/m² | - |
| 1777676644 | 6.67° C | 43% | 1016.3 hPa | 0 mm | - | 69 W/m² | - |
| 1777676341 | 6.67° C | 44% | 1016.3 hPa | 0 mm | - | 75 W/m² | - |
| 1777676039 | 7.22° C | 44% | 1016.2 hPa | 0 mm | - | 83 W/m² | - |
| 1777675734 | 6.67° C | 45% | 1016.3 hPa | 0 mm | - | 82 W/m² | - |
| 1777675432 | 6.67° C | 43% | 1016.2 hPa | 0 mm | - | 79 W/m² | - |
| 1777675129 | 6.67° C | 45% | 1016.4 hPa | 0 mm | - | 73 W/m² | - |
| 1777674825 | 6.67° C | 45% | 1016.4 hPa | 0 mm | - | 70 W/m² | - |
| 1777674521 | 6.67° C | 45% | 1016.3 hPa | 0 mm | - | 61 W/m² | - |
| 1777674220 | 6.67° C | 45% | 1016.3 hPa | 0 mm | - | 52 W/m² | - |
| 1777673915 | 6.67° C | 47% | 1016.3 hPa | 0 mm | - | 47 W/m² | - |
| 1777673612 | 6.67° C | 49% | 1016.3 hPa | 0 mm | - | 44 W/m² | - |
| 1777673310 | 6.67° C | 48% | 1016.3 hPa | 0 mm | - | 45 W/m² | - |
| 1777673007 | 6.67° C | 49% | 1016.3 hPa | 0 mm | - | 46 W/m² | - |
* Rain latest hour (hover to see other rain measurements)
** Current wind speed in m/s (hover to see current wind gust speed)